createdAt,value
2022-12-28T00:01:18.555Z,4.47
2022-12-28T00:03:48.212Z,4.41
2022-12-28T00:06:16.505Z,4.48
2022-12-28T00:08:44.093Z,4.46
2022-12-28T00:11:20.413Z,4.42
2022-12-28T00:13:54.644Z,4.45
2022-12-28T00:16:26.598Z,4.51
2022-12-28T00:18:55.953Z,4.45
2022-12-28T00:21:23.539Z,4.44
2022-12-28T00:23:52.163Z,4.41
2022-12-28T00:26:20.568Z,4.50
2022-12-28T00:28:48.552Z,4.52
2022-12-28T00:31:16.688Z,4.60
2022-12-28T00:33:44.744Z,4.54
2022-12-28T00:36:15.513Z,4.69
2022-12-28T00:38:43.525Z,4.86
2022-12-28T00:41:11.965Z,4.71
2022-12-28T00:43:39.709Z,4.80
2022-12-28T00:46:07.302Z,4.90
2022-12-28T00:48:35.484Z,4.90
2022-12-28T00:51:03.904Z,4.99
2022-12-28T00:53:32.743Z,5.03
2022-12-28T00:56:07.939Z,5.08
2022-12-28T00:58:35.689Z,5.10
2022-12-28T01:01:03.475Z,4.96
2022-12-28T01:03:31.726Z,5.02
2022-12-28T01:05:59.416Z,5.09
2022-12-28T01:08:26.896Z,5.08
2022-12-28T01:10:55.964Z,5.08
2022-12-28T01:13:23.458Z,5.13
2022-12-28T01:15:50.958Z,5.23
2022-12-28T01:18:20.284Z,5.30
2022-12-28T01:20:47.759Z,5.19
2022-12-28T01:23:16.624Z,5.21
2022-12-28T01:25:44.159Z,5.45
2022-12-28T01:28:12.945Z,5.14
2022-12-28T01:30:40.416Z,5.38
2022-12-28T01:33:07.866Z,5.32
2022-12-28T01:35:35.795Z,5.39
2022-12-28T01:38:03.304Z,5.41
2022-12-28T01:40:30.809Z,5.54
2022-12-28T01:42:58.309Z,5.59
2022-12-28T01:45:28.740Z,5.67
2022-12-28T01:47:57.292Z,5.60
2022-12-28T01:50:26.594Z,5.70
2022-12-28T01:52:57.123Z,5.71
2022-12-28T01:55:27.744Z,5.65
2022-12-28T01:57:57.462Z,5.77
2022-12-28T02:00:26.757Z,5.82
2022-12-28T02:02:57.981Z,5.79
2022-12-28T02:05:28.423Z,5.83
2022-12-28T02:07:59.671Z,5.63
2022-12-28T02:10:41.399Z,5.68
2022-12-28T02:13:12.638Z,5.40
2022-12-28T02:15:40.237Z,5.40
2022-12-28T02:18:09.359Z,5.37
2022-12-28T02:20:44.527Z,5.34
2022-12-28T02:23:32.298Z,5.35
2022-12-28T02:26:28.064Z,5.37
2022-12-28T02:29:10.210Z,5.20
2022-12-28T02:31:43.033Z,5.34
2022-12-28T02:34:17.562Z,5.39
2022-12-28T02:36:48.478Z,5.33
2022-12-28T02:39:20.218Z,5.29
2022-12-28T02:41:48.952Z,5.29
2022-12-28T02:44:38.993Z,5.40
2022-12-28T02:47:23.997Z,5.28
2022-12-28T02:50:09.741Z,5.35
2022-12-28T02:53:04.132Z,5.38
2022-12-28T02:55:57.751Z,5.30
2022-12-28T02:58:37.291Z,5.36
2022-12-28T03:01:14.701Z,5.52
2022-12-28T03:03:48.292Z,5.43
2022-12-28T03:06:37.618Z,5.44
2022-12-28T03:09:12.331Z,5.47
2022-12-28T03:11:44.714Z,5.39
2022-12-28T03:14:21.138Z,5.36
2022-12-28T03:17:11.361Z,5.42
2022-12-28T03:20:02.308Z,5.45
2022-12-28T03:22:49.070Z,5.55
2022-12-28T03:25:38.272Z,5.52
2022-12-28T03:28:25.351Z,5.45
2022-12-28T03:31:07.084Z,5.37
2022-12-28T03:33:41.918Z,5.43
2022-12-28T03:36:11.833Z,5.54
2022-12-28T03:38:49.547Z,5.49
2022-12-28T03:41:25.126Z,5.55
2022-12-28T03:43:55.665Z,5.69
2022-12-28T03:46:25.864Z,5.70
2022-12-28T03:48:55.153Z,5.72
2022-12-28T03:51:24.010Z,5.87
2022-12-28T03:53:53.022Z,5.67
2022-12-28T03:56:24.560Z,5.78
2022-12-28T03:58:54.918Z,5.94
2022-12-28T04:01:25.409Z,5.92
2022-12-28T04:03:53.152Z,5.82
2022-12-28T04:06:22.076Z,5.95
2022-12-28T04:08:50.373Z,6.08
2022-12-28T04:11:17.960Z,6.15
2022-12-28T04:13:49.998Z,6.19
2022-12-28T04:16:19.186Z,6.27
2022-12-28T04:18:47.281Z,6.36
2022-12-28T04:21:15.867Z,6.39
2022-12-28T04:23:54.073Z,6.38
2022-12-28T04:26:23.063Z,6.65
2022-12-28T04:28:53.394Z,6.61
2022-12-28T04:31:32.755Z,6.57
2022-12-28T04:34:07.161Z,6.66
2022-12-28T04:36:39.317Z,6.65
2022-12-28T04:39:12.849Z,6.72
2022-12-28T04:41:41.023Z,6.60
2022-12-28T04:44:08.484Z,6.55
2022-12-28T04:46:35.974Z,6.54
2022-12-28T04:49:03.574Z,6.51
2022-12-28T04:51:31.902Z,6.63
2022-12-28T04:53:59.556Z,6.65
2022-12-28T04:56:29.002Z,6.77
2022-12-28T04:58:57.396Z,6.75
2022-12-28T05:01:25.145Z,6.96
2022-12-28T05:03:56.559Z,6.96
2022-12-28T05:06:27.538Z,6.90
2022-12-28T05:08:56.278Z,6.83
2022-12-28T05:11:25.597Z,6.87
2022-12-28T05:13:54.620Z,6.84
2022-12-28T05:16:24.079Z,6.93
2022-12-28T05:18:51.827Z,6.70
2022-12-28T05:21:21.007Z,6.81
2022-12-28T05:23:49.631Z,6.76
2022-12-28T05:26:20.017Z,6.83
2022-12-28T05:28:48.123Z,6.59
2022-12-28T05:31:19.212Z,6.56
2022-12-28T07:48:21.429Z,7.13
2022-12-28T07:57:05.399Z,7.01
2022-12-28T07:59:34.964Z,7.01
2022-12-28T08:05:03.149Z,7.21
2022-12-28T08:10:34.636Z,7.21
2022-12-28T09:10:24.274Z,7.87
2022-12-28T09:54:22.898Z,8.24
2022-12-28T10:09:05.542Z,8.26
2022-12-28T10:11:38.214Z,8.43
2022-12-28T10:14:27.194Z,8.37
2022-12-28T10:19:59.595Z,8.22
2022-12-28T10:38:14.449Z,8.35
2022-12-28T12:01:57.935Z,8.67
2022-12-28T12:04:45.189Z,8.86
2022-12-28T12:10:27.988Z,8.79
2022-12-28T12:16:04.168Z,8.72
2022-12-28T12:18:41.320Z,8.85
2022-12-28T12:21:15.550Z,9.01
2022-12-28T12:23:47.285Z,9.06
2022-12-28T12:26:20.857Z,9.20
2022-12-28T12:28:50.236Z,9.24
2022-12-28T12:31:26.077Z,9.27
2022-12-28T12:33:59.501Z,9.36
2022-12-28T12:36:37.988Z,9.28
2022-12-28T12:39:19.095Z,9.37
2022-12-28T12:41:56.113Z,9.22
2022-12-28T12:44:34.253Z,9.17
2022-12-28T12:47:19.370Z,9.25
2022-12-28T12:50:18.670Z,9.16
2022-12-28T12:53:00.966Z,9.54
2022-12-28T12:55:41.384Z,9.43
2022-12-28T12:58:19.514Z,9.63
2022-12-28T13:00:53.140Z,9.46
2022-12-28T13:03:28.443Z,9.46
2022-12-28T13:05:58.828Z,9.51
2022-12-28T13:08:27.844Z,9.37
2022-12-28T13:10:56.156Z,9.27
2022-12-28T13:13:30.221Z,9.47
2022-12-28T13:16:02.967Z,9.44
2022-12-28T13:18:46.456Z,9.33
2022-12-28T13:21:20.472Z,9.55
2022-12-28T13:23:48.533Z,9.45
2022-12-28T13:26:17.276Z,9.21
2022-12-28T13:28:50.965Z,9.40
2022-12-28T13:31:20.228Z,9.28
2022-12-28T13:33:58.444Z,9.57
2022-12-28T13:36:27.768Z,9.59
2022-12-28T13:39:09.717Z,9.41
2022-12-28T13:41:38.408Z,9.22
2022-12-28T13:44:17.275Z,9.24
2022-12-28T13:46:47.970Z,9.30
2022-12-28T13:49:15.556Z,9.32
2022-12-28T13:51:49.739Z,9.27
2022-12-28T13:54:20.574Z,9.14
2022-12-28T13:56:48.125Z,9.42
2022-12-28T13:59:18.068Z,9.57
2022-12-28T14:01:49.611Z,9.22
2022-12-28T14:07:13.564Z,9.73
2022-12-28T14:09:41.232Z,9.42
2022-12-28T14:12:09.108Z,9.59
2022-12-28T14:14:36.763Z,9.66
2022-12-28T14:17:04.448Z,9.72
2022-12-28T14:19:32.072Z,9.36
2022-12-28T14:21:59.620Z,9.25
2022-12-28T14:24:28.471Z,9.06
2022-12-28T14:26:58.553Z,9.21
2022-12-28T14:56:44.718Z,8.13
2022-12-28T15:17:44.280Z,8.40
2022-12-28T15:20:14.452Z,8.25
2022-12-28T15:22:42.467Z,8.26
2022-12-28T15:25:11.480Z,8.17
2022-12-28T15:27:39.948Z,8.33
2022-12-28T15:30:11.927Z,8.37
2022-12-28T15:32:42.348Z,8.29
2022-12-28T15:35:10.362Z,8.32
2022-12-28T15:37:39.892Z,8.30
2022-12-28T15:40:08.899Z,8.49
2022-12-28T15:42:40.286Z,8.40
2022-12-28T15:45:12.734Z,8.43
2022-12-28T15:47:41.447Z,8.37
2022-12-28T15:50:10.524Z,8.42
2022-12-28T15:52:39.756Z,8.49
2022-12-28T15:55:07.982Z,8.38
2022-12-28T15:57:35.577Z,8.45
2022-12-28T16:00:03.961Z,8.45
2022-12-28T16:02:32.530Z,8.46
2022-12-28T16:05:00.303Z,8.45
2022-12-28T16:07:28.188Z,8.56
2022-12-28T16:09:57.172Z,8.48
2022-12-28T16:12:24.845Z,8.61
2022-12-28T16:14:52.661Z,8.53
2022-12-28T16:17:20.469Z,8.59
2022-12-28T16:19:48.029Z,8.53
2022-12-28T16:22:15.680Z,8.78
2022-12-28T16:24:43.409Z,8.66
2022-12-28T16:27:12.284Z,8.67
2022-12-28T16:29:40.052Z,8.60
2022-12-28T16:32:07.719Z,8.59
2022-12-28T16:34:35.407Z,8.55
2022-12-28T16:37:03.031Z,8.60
2022-12-28T16:39:31.090Z,8.66
2022-12-28T16:41:59.388Z,8.71
2022-12-28T16:44:29.330Z,8.56
2022-12-28T16:46:58.204Z,8.65
2022-12-28T16:49:25.955Z,8.63
2022-12-28T16:51:53.502Z,8.75
2022-12-28T16:54:23.268Z,8.62
2022-12-28T16:56:51.786Z,8.59
2022-12-28T16:59:21.169Z,8.69
2022-12-28T17:01:50.317Z,8.84
2022-12-28T17:04:17.895Z,8.70
2022-12-28T17:06:46.471Z,8.65
2022-12-28T17:09:14.728Z,8.55
2022-12-28T17:11:42.550Z,8.85
2022-12-28T17:14:13.149Z,8.80
2022-12-28T17:16:40.819Z,8.73
2022-12-28T17:19:09.686Z,8.85
2022-12-28T17:21:37.199Z,8.80
2022-12-28T17:24:05.599Z,8.87
2022-12-28T17:26:33.149Z,8.71
2022-12-28T17:29:00.885Z,8.73
2022-12-28T17:31:28.711Z,8.68
2022-12-28T17:33:58.540Z,8.72
2022-12-28T17:36:27.841Z,8.80
2022-12-28T17:38:55.373Z,8.84
2022-12-28T17:41:24.411Z,8.86
2022-12-28T17:43:53.929Z,8.88
2022-12-28T17:46:21.825Z,8.89
2022-12-28T17:48:49.535Z,8.95
2022-12-28T17:51:17.141Z,8.94
2022-12-28T17:53:46.023Z,9.02
2022-12-28T17:56:15.615Z,8.99
2022-12-28T17:58:44.599Z,9.06
2022-12-28T18:01:13.240Z,9.00
2022-12-28T18:03:41.373Z,8.96
2022-12-28T18:06:09.045Z,8.98
2022-12-28T18:08:36.821Z,8.93
2022-12-28T18:11:08.442Z,9.06
2022-12-28T18:13:36.126Z,9.29
2022-12-28T18:17:40.921Z,9.31
2022-12-28T18:20:09.827Z,9.21
2022-12-28T18:22:37.338Z,9.18
2022-12-28T18:26:47.688Z,9.26
2022-12-28T18:29:15.194Z,9.40
2022-12-28T18:31:42.688Z,9.34
2022-12-28T18:34:10.195Z,9.32
2022-12-28T18:36:37.647Z,9.30
2022-12-28T18:39:05.339Z,9.44
2022-12-28T18:41:34.373Z,9.23
2022-12-28T18:44:05.010Z,9.22
2022-12-28T18:46:32.612Z,9.12
2022-12-28T18:49:01.550Z,9.13
2022-12-28T18:51:29.113Z,9.03
2022-12-28T18:53:56.612Z,8.95
2022-12-28T18:56:24.171Z,8.96
2022-12-28T18:58:53.327Z,8.86
2022-12-28T19:06:37.515Z,8.66
2022-12-28T19:09:06.207Z,8.48
2022-12-28T19:11:34.431Z,8.56
2022-12-28T19:14:02.928Z,8.36
2022-12-28T19:16:31.783Z,8.18
2022-12-28T19:19:00.311Z,8.29
2022-12-28T20:22:11.861Z,7.91
2022-12-28T21:12:41.147Z,8.05
2022-12-28T21:21:25.776Z,8.03
2022-12-28T21:26:56.515Z,8.17
2022-12-28T21:29:26.191Z,8.16
2022-12-28T21:31:54.376Z,8.32
2022-12-28T21:34:22.579Z,8.39
2022-12-28T21:36:51.528Z,8.40
2022-12-28T21:39:19.371Z,8.37
2022-12-28T21:41:49.877Z,8.29
2022-12-28T21:44:19.908Z,8.39
2022-12-28T21:46:47.694Z,8.41
2022-12-28T21:49:15.279Z,8.62
2022-12-28T21:51:42.869Z,8.56
2022-12-28T21:54:13.619Z,8.53
2022-12-28T21:56:42.240Z,8.64
2022-12-28T21:59:11.079Z,8.80
2022-12-28T22:01:57.004Z,8.76
2022-12-28T22:04:42.559Z,8.89
2022-12-28T22:07:11.679Z,8.83
2022-12-28T22:09:58.481Z,8.83
2022-12-28T22:12:36.135Z,8.89
2022-12-28T22:15:30.576Z,8.92
2022-12-28T22:17:59.980Z,9.04
2022-12-28T22:20:28.333Z,9.12
2022-12-28T22:22:56.862Z,9.12
2022-12-28T22:25:26.171Z,9.11
2022-12-28T22:27:53.775Z,9.28
2022-12-28T22:30:21.432Z,9.28
2022-12-28T22:32:49.020Z,9.36
2022-12-28T22:35:18.634Z,9.29
2022-12-28T22:37:46.350Z,9.36
2022-12-28T22:40:14.409Z,9.34
2022-12-28T22:42:44.453Z,9.35
2022-12-28T22:45:12.953Z,9.52
2022-12-28T22:47:41.076Z,9.56
2022-12-28T22:50:11.076Z,9.48
2022-12-28T22:52:38.608Z,9.54
2022-12-28T22:55:06.878Z,9.54
2022-12-28T22:57:34.876Z,9.58
2022-12-28T23:00:04.359Z,9.60
2022-12-28T23:02:32.033Z,9.68
2022-12-28T23:04:59.859Z,9.71
2022-12-28T23:07:27.461Z,9.88
2022-12-28T23:09:54.978Z,9.76
2022-12-28T23:12:22.558Z,9.77
2022-12-28T23:15:07.965Z,9.83
2022-12-28T23:17:37.060Z,9.82
2022-12-28T23:20:22.423Z,10.02
2022-12-28T23:23:07.018Z,9.96
2022-12-28T23:25:52.166Z,9.74
2022-12-28T23:28:19.677Z,9.74
2022-12-28T23:30:49.006Z,9.85
2022-12-28T23:33:18.645Z,9.86
2022-12-28T23:35:46.302Z,9.79
2022-12-28T23:38:13.807Z,9.76
2022-12-28T23:40:42.037Z,9.83
2022-12-28T23:43:09.620Z,9.78
2022-12-28T23:45:37.352Z,10.08
2022-12-28T23:48:05.631Z,9.97
2022-12-28T23:50:34.582Z,9.79
2022-12-28T23:53:02.097Z,9.96
2022-12-28T23:55:29.900Z,10.01
2022-12-28T23:57:57.446Z,10.04
